UPSVAC Airport Information Service

Shanghai Pudong International Airport (ZHUB)

ICAO: ZSPD Country: China
Latitude: 31.1434 Longitude: 121.805
Latest Arrival : UPS501 (RJAA-ZSPD) Latest Departure : UPS1395 (ZSPD-RKSI)


WX CaptureLIVE
Data provided by noaa.gov | Fetched at 18:03:36

METAR : ZSPD 191730Z 16003MPS CAVOK 24/23 Q1009 NOSIG

TAF : ZSPD 191506Z 1918/2018 15005MPS 6000 SCT020 TX30/2006Z TN22/1921Z BECMG 2004/2006 27004MPS TEMPO 2006/2011 TSRA BKN011 FEW030CB


Runway Data for ZSPD
Data provided by openaviationdata.com

Runway ID Mag Var Hdg Length Elevation Surface ILS Freq ILS Id ILS Slope
16 -5 167° 12467 ft 10 ft Concrete -- -- --
17 -5 167° 13150 ft 10 ft Concrete 110.7 IPD 3
34 -5 347° 12467 ft 10 ft Concrete -- -- --
35 -5 347° 13150 ft 10 ft Concrete 111.9 INN 3

Shanghai Pudong International Airport (ZHUB), China
Use only for reference purposes



Not for navigational purposes.